• Join FlightAware (Why Join?)
  • Login
  • US Flag 
08:20PM EST


 

Airport Tracker/Info


-or-


 

Live Flight TrackerFlight Track Log ✈ SWA3499 ✈ 12-May-2013 ✈ KMCO - KMHT

Flight Track Log - Related Links

Times and Time Zones

All times are in EDT time to prevent confusion due to time zone crossing. See the SWA3499 flight status page for this flight to view local times or setup timezone preferences in your user account.

Time Position Orientation Groundspeed Altitude Reporting Facility
EDT Latitude Longitude Course Direction KTS MPH feet Rate Location/Type
07:04PM 28.4333 -81.3000 24° Northeast 184 212 800  Level Orlando TRACON
07:04PM 28.4667 -81.2833 24° Northeast 204 235 2,000 1,980 Climbing Orlando TRACON
07:05PM 28.5333 -81.2500 24° Northeast 233 268 4,300 2,340 Climbing Orlando TRACON
07:07PM 28.6572 -81.2672 353° North 280 322 8,900 2,100 Climbing Jacksonville Center
07:08PM 28.7389 -81.2894 347° North 280 322 10,500 2,100 Climbing Jacksonville Center
07:09PM 28.8331 -81.3142 347° North 312 359 13,100 2,460 Climbing Jacksonville Center
07:10PM 28.9314 -81.3411 347° North 342 394 15,500 2,340 Climbing Jacksonville Center
07:11PM 29.0422 -81.3511 355° North 372 428 17,800 2,340 Climbing Jacksonville Center
07:12PM 29.1531 -81.3686 352° North 393 452 20,200 2,160 Climbing Jacksonville Center
07:13PM 29.2681 -81.3761 357° North 404 465 22,200 1,860 Climbing Jacksonville Center
07:14PM 29.3872 -81.3911 354° North 414 476 24,000 1,740 Climbing Jacksonville Center
07:15PM 29.5083 -81.4011 356° North 425 489 25,700 1,680 Climbing Jacksonville Center
07:16PM 29.6356 -81.4017 360° North 438 504 27,400 1,560 Climbing Jacksonville Center
07:17PM 29.7653 -81.4067 358° North 448 516 28,900 1,620 Climbing Jacksonville Center
07:18PM 29.8967 -81.4094 359° North 461 531 30,700 1,800 Climbing Jacksonville Center
07:19PM 30.0178 -81.4100 360° North 456 525 32,600 1,500 Climbing Jacksonville Center
07:20PM 30.1411 -81.4131 359° North 450 518 33,700 900 Climbing Jacksonville Center
07:21PM 30.2706 -81.4133 360° North 450 518 34,500 1,080 Climbing Jacksonville Center
07:22PM 30.4125 -81.4183 358° North 457 526 35,900 1,200 Climbing Jacksonville Center
07:23PM 30.5356 -81.4189 360° North 457 526 36,900 540 Climbing Jacksonville Center
07:24PM 30.6653 -81.4217 359° North 457 526 37,000  Climbing Jacksonville Center
07:25PM 30.7883 -81.4272 358° North 457 526 37,000  Level Jacksonville Center
07:26PM 30.9136 -81.4300 359° North 457 526 37,000  Level Jacksonville Center
07:27PM 31.0369 -81.4331 359° North 452 520 37,000  Level Jacksonville Center
07:28PM 31.1622 -81.4358 359° North 438 504 37,000  Level Jacksonville Center
07:29PM 31.2894 -81.4289 North 446 513 37,000  Level Jacksonville Center
07:30PM 31.4144 -81.3931 14° North 458 527 37,000  Level Jacksonville Center
07:31PM 31.5433 -81.3592 13° North 471 542 37,000  Level Jacksonville Center
07:32PM 31.6600 -81.3306 12° North 471 542 37,000  Level Jacksonville Center
07:33PM 31.7994 -81.2914 13° North 471 542 37,000  Level Jacksonville Center
07:34PM 31.9200 -81.2600 12° North 476 548 37,000  Level Jacksonville Center
07:35PM 32.0511 -81.2258 12° North 476 548 37,000  Level Jacksonville Center
07:36PM 32.1819 -81.1767 18° North 481 554 37,000  Level Jacksonville Center
07:37PM 32.3039 -81.0883 31° Northeast 491 565 37,000  Level Jacksonville Center
07:38PM 32.4258 -81.0000 31° Northeast 512 589 37,000  Level Jacksonville Center
07:39PM 32.5478 -80.9111 32° Northeast 512 589 37,000  Level Jacksonville Center
07:40PM 32.6675 -80.8244 31° Northeast 507 583 37,000  Level Jacksonville Center
07:41PM 32.7892 -80.7353 32° Northeast 507 583 37,000  Level Jacksonville Center
07:42PM 32.9086 -80.6483 31° Northeast 507 583 37,000  Level Jacksonville Center
07:43PM 33.0281 -80.5611 31° Northeast 507 583 37,000  Level Jacksonville Center
07:44PM 33.1475 -80.4761 31° Northeast 507 583 37,000  Level Jacksonville Center
07:45PM 33.2689 -80.3858 32° Northeast 507 583 37,000  Level Jacksonville Center
07:46PM 33.3881 -80.2956 32° Northeast 507 583 37,000  Level Jacksonville Center
07:47PM 33.5094 -80.2072 31° Northeast 507 583 37,000  Level Jacksonville Center
07:48PM 33.6286 -80.1164 32° Northeast 507 583 37,000  Level Jacksonville Center
07:49PM 33.7517 -80.0225 32° Northeast 507 583 37,000  Level Jacksonville Center
07:50PM 33.8808 -79.9258 32° Northeast 507 583 37,000  Level Jacksonville Center
07:51PM 34.0039 -79.8314 32° Northeast 507 583 37,000  Level Jacksonville Center
07:52PM 34.1267 -79.7392 32° Northeast 507 583 37,000  Level Jacksonville Center
07:53PM 34.2494 -79.6469 32° Northeast 512 589 37,000  Level Jacksonville Center
07:54PM 34.3769 -79.5792 24° Northeast 499 574 37,000  Level Jacksonville Center
07:55PM 34.4294 -79.5550 21° North 502 578 37,000  Level Washington Center
07:56PM 34.5569 -79.4881 23° Northeast 502 578 37,000  Level Washington Center
07:57PM 34.6864 -79.4211 23° Northeast 502 578 37,000  Level Washington Center
07:58PM 34.8136 -79.3536 24° Northeast 502 578 37,000  Level Washington Center
07:59PM 34.9411 -79.2861 23° Northeast 502 578 37,000  Level Washington Center
08:00PM 35.0683 -79.2183 24° Northeast 492 566 37,000  Level Washington Center
08:01PM 35.1956 -79.1528 23° Northeast 492 566 37,000  Level Washington Center
08:02PM 35.3228 -79.0847 24° Northeast 492 566 37,000  Level Washington Center
08:03PM 35.4478 -79.0186 23° Northeast 487 560 37,000  Level Washington Center
08:04PM 35.5747 -78.9503 24° Northeast 487 560 37,000  Level Washington Center
08:05PM 35.7019 -78.8839 23° Northeast 487 560 37,000  Level Washington Center
08:06PM 35.8247 -78.8122 25° Northeast 487 560 37,000  Level Washington Center
08:07PM 35.9483 -78.7222 31° Northeast 487 560 37,000  Level Washington Center
08:08PM 36.0614 -78.6214 36° Northeast 499 574 37,000  Level Washington Center
08:09PM 36.1786 -78.5203 35° Northeast 504 580 37,000  Level Washington Center
08:10PM 36.2706 -78.4361 36° Northeast 509 586 37,000  Level Washington Center
08:11PM 36.4111 -78.3097 36° Northeast 509 586 37,000  Level Washington Center
08:12PM 36.5281 -78.2078 35° Northeast 509 586 37,000  Level Washington Center
08:13PM 36.6389 -78.1053 37° Northeast 509 586 37,000  Level Washington Center
08:14PM 36.7514 -78.0028 36° Northeast 504 580 37,000  Level Washington Center
08:15PM 36.8664 -77.8947 37° Northeast 504 580 37,000  Level Washington Center
08:16PM 36.9703 -77.7964 37° Northeast 510 587 37,000  Level Washington Center
08:17PM 37.0828 -77.6903 37° Northeast 510 587 37,000  Level Washington Center
08:18PM 37.1972 -77.5839 37° Northeast 510 587 37,000  Level Washington Center
08:19PM 37.3094 -77.4772 37° Northeast 510 587 37,000  Level Washington Center
08:20PM 37.4239 -77.3728 36° Northeast 510 587 37,000  Level Washington Center
08:21PM 37.5486 -77.2525 37° Northeast 510 587 37,000  Level Washington Center
08:22PM 37.6628 -77.1447 37° Northeast 510 587 37,000  Level Washington Center
08:23PM 37.7789 -77.0317 38° Northeast 510 587 37,000  Level Washington Center
08:24PM 37.8928 -76.9206 38° Northeast 510 587 37,000  Level Washington Center
08:25PM 38.0086 -76.8092 37° Northeast 510 587 37,000  Level Washington Center
08:26PM 38.1244 -76.6978 37° Northeast 510 587 37,000  Level Washington Center
08:27PM 38.2378 -76.5858 38° Northeast 510 587 37,000  Level Washington Center
08:28PM 38.3408 -76.4892 36° Northeast 506 582 37,000  Level Washington Center
08:29PM 38.4542 -76.3764 38° Northeast 506 582 37,000  Level Washington Center
08:30PM 38.5675 -76.2661 37° Northeast 511 588 37,000  Level Washington Center
08:31PM 38.6972 -76.1397 37° Northeast 519 597 37,000  Level Washington Center
08:32PM 38.8103 -76.0286 37° Northeast 519 597 37,000  Level Washington Center
08:33PM 38.9253 -75.9172 37° Northeast 513 590 37,000  Level Washington Center
08:34PM 39.0381 -75.8000 39° Northeast 513 590 37,000  Level Washington Center
08:36PM 39.2672 -75.5711 38° Northeast 516 594 37,000  Level New York Center
08:37PM 39.3803 -75.4578 38° Northeast 516 594 37,000  Level New York Center
08:38PM 39.4956 -75.3392 38° Northeast 516 594 37,000  Level New York Center
08:39PM 39.6125 -75.2228 37° Northeast 516 594 37,000  Level New York Center
08:40PM 39.7125 -75.1131 40° Northeast 516 594 37,000  Level New York Center
08:41PM 39.8275 -74.9931 39° Northeast 516 594 37,000  Level New York Center
08:42PM 39.9400 -74.8725 39° Northeast 516 594 37,000  Level New York Center
08:43PM 40.0708 -74.7692 31° Northeast 502 578 37,000  Level New York Center
08:44PM 40.2100 -74.7228 14° North 495 570 37,000  Level New York Center
08:45PM 40.3344 -74.6756 16° North 501 577 37,000  Level New York Center
08:46PM 40.4714 -74.6286 15° North 506 582 37,000  Level New York Center
08:48PM 40.8017 -74.5103 15° North 498 573 37,000  Level Boston Center
08:49PM 40.9400 -74.4597 15° North 508 585 37,000  Level Boston Center
08:50PM 41.0786 -74.4117 15° North 508 585 37,000  Level Boston Center
08:51PM 41.2189 -74.3664 14° North 513 590 37,000  Level Boston Center
08:52PM 41.3617 -74.3125 16° North 513 590 37,000  Level Boston Center
08:53PM 41.4978 -74.2611 16° North 513 590 37,000 -720 Level Boston Center
08:54PM 41.6403 -74.2153 14° North 518 596 35,600 -1,860 Descending Boston Center
08:55PM 41.7786 -74.1633 16° North 518 596 33,300 -2,040 Descending Boston Center
08:56PM 41.9256 -74.1086 15° North 506 582 31,200 -1,500 Descending Boston Center
08:57PM 42.0867 -74.0542 14° North 494 568 30,100 -1,140 Descending Boston Center
08:58PM 42.2147 -73.9847 22° Northeast 494 568 29,000 -1,080 Descending Boston Center
08:59PM 42.2794 -73.8236 61° Northeast 452 520 28,000 -1,020 Descending Boston Center
09:00PM 42.3356 -73.6589 65° Northeast 471 542 27,000 -1,020 Descending Boston Center
09:01PM 42.3914 -73.5000 65° Northeast 461 531 26,000 -960 Descending Boston Center
09:02PM 42.4406 -73.3431 67° East 479 551 25,100 -1,200 Descending Boston Center
09:03PM 42.4958 -73.1919 64° Northeast 479 551 23,700 -1,620 Descending Boston Center
09:04PM 42.5447 -73.0375 67° East 461 531 21,900 -1,800 Descending Boston Center
09:05PM 42.5975 -72.8858 65° Northeast 448 516 20,200 -1,680 Descending Boston Center
09:06PM 42.6439 -72.7506 65° Northeast 417 480 18,600 -1,740 Descending Boston Center
09:07PM 42.6919 -72.6067 66° East 412 474 16,800 -1,800 Descending Boston Center
09:08PM 42.7358 -72.4711 66° East 400 460 15,100 -1,740 Descending Boston Center
09:09PM 42.7817 -72.3356 65° Northeast 400 460 13,400 -1,800 Descending Boston Center
09:10PM 42.8003 -72.1883 80° East 380 437 11,600 -1,440 Descending Boston Center
09:11PM 42.8103 -72.0722 83° East 353 406 10,600 -1,200 Descending Boston Center
09:12PM 42.8119 -71.9419 89° East 325 374 9,200 -1,500 Descending Boston Center
09:13PM 42.8094 -71.8344 92° East 314 361 7,700 -1,500 Descending Boston Center
09:14PM 42.8022 -71.6844 94° East 309 356 6,000 -1,200 Descending Boston Center
09:15PM 42.7931 -71.5744 96° East 302 348 5,100 -1,260 Descending Boston Center
09:16PM 42.7861 -71.4839 96° East 272 313 3,500 -1,200 Descending Boston Center
09:17PM 42.8231 -71.4097 56° Northeast 216 249 2,700 -900 Descending Boston Center
09:18PM 42.8561 -71.3922 21° North 163 188 1,700 -900 Descending Boston Center
09:19PM 42.8939 -71.4114 340° North 120 138 900 -660 Descending Boston Center
09:20PM 42.9253 -71.4250 342° North 135 155 400 9,000 Descending Boston Center
09:21PM 42.9608 -71.4472 335° Northwest 135 155 19,000 9,300 Climbing Boston Center
09:22PM 42.9986 -71.4664 340° North 135 155 19,000  Level Boston Center
09:23PM 43.0342 -71.4886 335° Northwest 135 155 19,000  Level Boston Center
09:25PM 42.9328 -71.4358 170° South  Level Estimated
09:32PM 42.9328 -71.4358 170° South  Level Estimated
09:33PM 42.9328 -71.4358 170° South  Level Estimated
09:34PM 42.9328 -71.4358 170° South  Level Estimated
09:35PM 42.9328 -71.4358 170° South  Level Estimated
09:36PM 42.9328 -71.4358 170° South  Level Estimated
09:37PM 42.9328 -71.4358 170° South  Level Estimated